SAWG

Piloto Civil N. Fernández Airport

Rio Gallegos, Argentina
TAF SAWG 251100Z 2512/2612 VRB03KT CAVOK TX09/2518Z TNM03/2512Z
Issued Valid From Valid To
Sep-25 @ 11:00 UTC
(6 hours ago)
Sep-25 @ 12:00 UTC
(5 hours ago)
Sep-26 @ 12:00 UTC
(in 19 hours)
Sep-25 @ 12:00 to Sep-26 @ 12:00
TAF SAWG 251100Z 2512/2612 VRB03KT CAVOK TX09/2518Z TNM03/2512Z
Wind Visibility Clouds
Variable at 3 knots 10,000+ meters
  • No significant clouds
TAF SAWG 251100Z 2512/2612 VRB03KT CAVOK TX09/2518Z TNM03/2512Z
Issued Sep-25 @ 11:00 UTC
(6 hours ago)
Valid From Sep-25 @ 12:00 UTC
(5 hours ago)
Valid To Sep-26 @ 12:00 UTC
(in 19 hours)
Sep-25 @ 12:00 - Sep-26 @ 12:00
Wind Visibility
Variable at 3 knots 10,000+ meters
Clouds
  • No significant clouds